Time;durP1;ratioP1;P1;durP2;ratioP2;P2;SDS_P1;SDS_P2;PMS_P1;PMS_P2;Temp;Humidity;BMP_temperature;BMP_pressure;BME280_temperature;BME280_humidity;BME280_pressure;Samples;Min_cycle;Max_cycle;Signal;HPM_P1;HPM_P2
2021/11/28 00:00:32;;;;;;;37.10;21.35;;;6.80;91.70;;;;;;5077567;28;20408;-33
2021/11/28 00:03:03;;;;;;;37.72;22.55;;;6.80;91.70;;;;;;5077794;28;20091;-39
2021/11/28 00:05:29;;;;;;;39.33;21.88;;;6.80;91.70;;;;;;5077509;28;20087;-38
2021/11/28 00:10:55;;;;;;;34.28;21.40;;;6.80;91.70;;;;;;5077493;28;20025;-34
2021/11/28 00:15:54;;;;;;;39.35;21.98;;;6.70;91.80;;;;;;5077788;28;20027;-34
2021/11/28 00:18:21;;;;;;;36.17;21.30;;;6.80;91.90;;;;;;5077534;28;20022;-39
2021/11/28 00:20:47;;;;;;;33.65;21.20;;;6.70;91.90;;;;;;5077677;28;20029;-39
2021/11/28 00:23:12;;;;;;;36.10;20.33;;;6.70;91.90;;;;;;5077211;28;20078;-35
2021/11/28 00:25:38;;;;;;;32.83;20.40;;;6.70;91.90;;;;;;5077128;28;20036;-35
2021/11/28 00:28:05;;;;;;;35.40;20.58;;;6.70;91.90;;;;;;5077442;28;20414;-34
2021/11/28 00:30:32;;;;;;;37.13;22.13;;;6.70;91.90;;;;;;5077232;28;20084;-39
2021/11/28 00:32:59;;;;;;;33.47;21.25;;;6.70;92.00;;;;;;5076843;28;20029;-34
2021/11/28 00:35:25;;;;;;;36.38;21.13;;;6.70;91.90;;;;;;5077128;28;20106;-38
2021/11/28 00:37:51;;;;;;;34.25;20.63;;;6.70;91.90;;;;;;5076864;28;20024;-39
2021/11/28 00:40:17;;;;;;;33.42;20.33;;;6.70;91.90;;;;;;5076764;28;20028;-34
2021/11/28 00:42:43;;;;;;;36.85;21.10;;;6.70;91.90;;;;;;5076663;28;20033;-39
2021/11/28 00:45:09;;;;;;;30.50;19.67;;;6.70;91.90;;;;;;5076606;28;20033;-34
2021/11/28 00:47:34;;;;;;;37.72;19.92;;;6.70;91.90;;;;;;5076947;28;20090;-34
2021/11/28 00:52:30;;;;;;;31.98;19.52;;;6.70;91.80;;;;;;5076947;28;20048;-34
2021/11/28 00:54:55;;;;;;;33.03;19.52;;;6.70;91.70;;;;;;5076460;28;20060;-35
2021/11/28 00:57:23;;;;;;;32.55;19.75;;;6.60;91.60;;;;;;5076708;28;20412;-35
2021/11/28 00:59:49;;;;;;;30.85;18.02;;;6.60;91.60;;;;;;5077061;28;20041;-39
2021/11/28 01:02:16;;;;;;;31.55;19.48;;;6.60;91.60;;;;;;5076816;28;20455;-34
2021/11/28 01:04:43;;;;;;;35.00;19.58;;;6.60;91.60;;;;;;5076817;28;20045;-39
2021/11/28 01:07:08;;;;;;;37.80;20.85;;;6.60;91.50;;;;;;5076504;28;20298;-34
2021/11/28 01:09:34;;;;;;;36.35;19.55;;;6.60;91.50;;;;;;5076530;28;20032;-35
2021/11/28 01:12:00;;;;;;;28.95;18.08;;;6.50;91.50;;;;;;5075325;28;20029;-39
2021/11/28 01:14:26;;;;;;;29.42;17.60;;;6.50;91.50;;;;;;5076295;28;20033;-39
2021/11/28 01:16:52;;;;;;;33.28;19.77;;;6.50;91.50;;;;;;5076347;28;20040;-39
2021/11/28 01:19:18;;;;;;;30.77;19.30;;;6.50;91.40;;;;;;5076540;28;20408;-39
2021/11/28 01:21:57;;;;;;;29.15;18.50;;;6.50;91.40;;;;;;5076627;28;20046;-39
2021/11/28 01:24:23;;;;;;;32.97;20.35;;;6.50;91.30;;;;;;5076546;28;20090;-34
2021/11/28 01:26:50;;;;;;;32.10;18.90;;;6.50;91.40;;;;;;5076257;28;20354;-34
2021/11/28 01:29:15;;;;;;;34.70;20.70;;;6.50;91.40;;;;;;5076491;28;20033;-35
2021/11/28 01:31:41;;;;;;;30.10;17.95;;;6.50;91.30;;;;;;5076083;28;20016;-34
2021/11/28 01:34:07;;;;;;;28.33;17.85;;;6.50;91.30;;;;;;5076433;28;20028;-33
2021/11/28 01:36:34;;;;;;;30.95;19.27;;;6.40;91.30;;;;;;5076375;28;20328;-39
2021/11/28 01:39:02;;;;;;;34.80;20.80;;;6.40;91.30;;;;;;5076240;28;20097;-34
2021/11/28 01:41:28;;;;;;;28.35;18.58;;;6.40;91.40;;;;;;5076068;28;20036;-35
2021/11/28 01:43:54;;;;;;;32.80;20.45;;;6.40;91.40;;;;;;5076276;28;20040;-39
2021/11/28 01:46:20;;;;;;;33.63;19.83;;;6.40;91.40;;;;;;5075997;28;20025;-34
2021/11/28 01:48:46;;;;;;;30.45;18.80;;;6.40;91.40;;;;;;5076212;28;20289;-33
2021/11/28 01:51:12;;;;;;;32.92;20.17;;;6.30;91.40;;;;;;5075938;28;20306;-39
2021/11/28 01:53:38;;;;;;;31.35;19.70;;;6.30;91.40;;;;;;5075792;28;20029;-34
2021/11/28 01:56:05;;;;;;;32.92;19.95;;;6.30;91.40;;;;;;5074894;28;20021;-39
2021/11/28 01:58:31;;;;;;;29.80;19.08;;;6.30;91.40;;;;;;5074727;28;20040;-39
2021/11/28 02:00:59;;;;;;;33.13;19.88;;;6.30;91.50;;;;;;5075816;28;20025;-39
2021/11/28 02:03:25;;;;;;;31.85;20.13;;;6.30;91.60;;;;;;5075706;28;20119;-35
2021/11/28 02:05:54;;;;;;;40.30;19.80;;;6.30;91.60;;;;;;5075703;28;20020;-35
2021/11/28 02:08:21;;;;;;;34.72;19.95;;;6.20;91.70;;;;;;5075773;28;20024;-35
2021/11/28 02:10:48;;;;;;;30.75;18.77;;;6.30;91.70;;;;;;5075615;28;20024;-39
2021/11/28 02:13:15;;;;;;;32.78;19.40;;;6.20;91.60;;;;;;5075997;28;20308;-39
2021/11/28 02:15:41;;;;;;;30.50;18.98;;;6.20;91.60;;;;;;5075738;28;20452;-39
2021/11/28 02:18:08;;;;;;;30.92;18.90;;;6.20;91.50;;;;;;5075731;28;20036;-35
2021/11/28 02:20:48;;;;;;;27.80;17.77;;;6.20;91.50;;;;;;5075597;28;20078;-39
2021/11/28 02:23:14;;;;;;;26.75;16.92;;;6.20;91.50;;;;;;5075675;28;20029;-38
2021/11/28 02:25:42;;;;;;;31.60;18.08;;;6.20;91.50;;;;;;5075563;28;20033;-41
2021/11/28 02:28:08;;;;;;;28.23;18.33;;;6.20;91.50;;;;;;5079701;28;20438;-34
2021/11/28 02:30:34;;;;;;;27.88;16.95;;;6.20;91.40;;;;;;5079489;28;20028;-39
2021/11/28 02:33:01;;;;;;;30.08;17.65;;;6.20;91.40;;;;;;5079693;28;20315;-39
2021/11/28 02:35:30;;;;;;;29.13;17.58;;;6.10;91.40;;;;;;5079356;28;20104;-39
2021/11/28 02:37:57;;;;;;;30.23;19.17;;;6.10;91.40;;;;;;5079501;28;20028;-34
2021/11/28 02:40:25;;;;;;;30.77;18.13;;;6.10;91.50;;;;;;5079135;28;20064;-39
2021/11/28 02:42:53;;;;;;;28.33;17.15;;;6.10;91.50;;;;;;5079249;28;20107;-34
2021/11/28 02:45:23;;;;;;;28.48;17.65;;;6.10;91.50;;;;;;5079004;28;20025;-39
2021/11/28 02:47:49;;;;;;;26.83;17.80;;;6.10;91.40;;;;;;5079333;28;20416;-39
2021/11/28 02:50:17;;;;;;;29.75;17.58;;;6.00;91.30;;;;;;5079143;28;20095;-35
2021/11/28 02:52:52;;;;;;;28.27;17.33;;;6.00;91.30;;;;;;5078939;28;20032;-39
2021/11/28 02:55:20;;;;;;;22.55;15.68;;;6.00;91.30;;;;;;5078832;28;20060;-39
2021/11/28 02:57:45;;;;;;;25.05;15.48;;;6.00;91.20;;;;;;5079263;28;20051;-35
2021/11/28 03:00:12;;;;;;;24.83;16.17;;;6.00;91.30;;;;;;5078894;28;20025;-34
2021/11/28 03:02:37;;;;;;;23.58;15.48;;;5.90;91.20;;;;;;5078801;28;20028;-34
2021/11/28 03:05:04;;;;;;;27.10;16.67;;;5.90;91.10;;;;;;5079163;28;20037;-39
2021/11/28 03:07:30;;;;;;;26.65;16.88;;;5.90;91.10;;;;;;5077581;28;20112;-36
2021/11/28 03:09:56;;;;;;;25.30;16.55;;;5.80;91.10;;;;;;5079099;28;20107;-39
2021/11/28 03:12:21;;;;;;;27.08;16.67;;;5.80;91.10;;;;;;5078511;28;20031;-33
2021/11/28 03:14:47;;;;;;;24.50;16.20;;;5.80;91.00;;;;;;5079136;28;20307;-39
2021/11/28 03:17:13;;;;;;;29.23;16.08;;;5.70;91.10;;;;;;5078643;28;20320;-35
2021/11/28 03:19:40;;;;;;;25.38;15.70;;;5.70;91.10;;;;;;5078975;28;20063;-39
2021/11/28 03:22:07;;;;;;;28.27;16.17;;;5.70;91.10;;;;;;5078828;28;20344;-34
2021/11/28 03:24:32;;;;;;;28.25;14.60;;;5.70;91.20;;;;;;5078636;28;20036;-33
2021/11/28 03:26:58;;;;;;;26.77;14.65;;;5.70;91.10;;;;;;5078587;28;20031;-39
2021/11/28 03:29:25;;;;;;;22.52;14.38;;;5.60;91.00;;;;;;5078607;28;20074;-36
2021/11/28 03:31:54;;;;;;;24.77;13.63;;;5.60;91.00;;;;;;5078527;28;20410;-34
2021/11/28 03:34:20;;;;;;;26.40;13.63;;;5.60;91.00;;;;;;5078566;28;20096;-34
2021/11/28 03:36:50;;;;;;;22.38;13.38;;;5.60;90.90;;;;;;5077868;28;20024;-33
2021/11/28 03:39:18;;;;;;;19.80;12.95;;;5.50;90.90;;;;;;5078558;28;20047;-35
2021/11/28 03:41:47;;;;;;;20.70;13.40;;;5.50;90.90;;;;;;5078318;28;20416;-34
2021/11/28 03:44:14;;;;;;;16.67;12.00;;;5.50;91.00;;;;;;5078374;28;20044;-39
2021/11/28 03:46:40;;;;;;;20.48;13.25;;;5.40;91.00;;;;;;5078297;28;20149;-35
2021/11/28 03:49:06;;;;;;;19.50;12.27;;;5.50;91.00;;;;;;5078403;28;20392;-34
2021/11/28 03:51:33;;;;;;;17.35;12.15;;;5.40;90.80;;;;;;5077935;28;20025;-35
2021/11/28 03:53:59;;;;;;;20.05;11.80;;;5.40;90.60;;;;;;5077657;28;20055;-33
2021/11/28 03:56:25;;;;;;;22.77;11.38;;;5.40;90.50;;;;;;5077706;28;20032;-39
2021/11/28 03:58:51;;;;;;;20.08;11.20;;;5.30;90.20;;;;;;5077926;28;20036;-39
2021/11/28 04:01:17;;;;;;;20.63;11.40;;;5.30;90.30;;;;;;5077673;28;20325;-38
2021/11/28 04:03:44;;;;;;;18.48;11.00;;;5.20;90.30;;;;;;5077844;28;20040;-34
2021/11/28 04:06:10;;;;;;;23.27;11.43;;;5.20;90.30;;;;;;5077741;28;20082;-35
2021/11/28 04:08:37;;;;;;;28.33;12.38;;;5.20;90.30;;;;;;5076557;28;20028;-34
2021/11/28 04:11:03;;;;;;;27.90;11.82;;;5.10;90.30;;;;;;5077553;28;20115;-34
2021/11/28 04:13:29;;;;;;;41.63;10.85;;;5.10;90.20;;;;;;5076378;28;20071;-36
2021/11/28 04:15:55;;;;;;;44.28;11.82;;;5.00;90.20;;;;;;5077488;28;20040;-39
2021/11/28 04:18:21;;;;;;;35.58;11.35;;;5.00;90.00;;;;;;5077606;28;20440;-35
2021/11/28 04:20:48;;;;;;;41.58;11.07;;;4.90;89.90;;;;;;5077372;28;20021;-39
2021/11/28 04:23:14;;;;;;;31.35;10.50;;;4.80;89.80;;;;;;5077116;28;20028;-38
2021/11/28 04:25:41;;;;;;;43.53;10.70;;;4.80;90.00;;;;;;5077460;28;20154;-41
2021/11/28 04:28:07;;;;;;;47.22;10.60;;;4.70;90.00;;;;;;5077311;28;20035;-39
2021/11/28 04:30:34;;;;;;;52.75;10.38;;;4.70;90.10;;;;;;5075947;28;20115;-39
2021/11/28 04:33:00;;;;;;;32.05;10.30;;;4.60;90.10;;;;;;5077080;28;20119;-34
2021/11/28 04:35:26;;;;;;;45.55;10.82;;;4.50;90.20;;;;;;5077294;28;20039;-35
2021/11/28 04:37:52;;;;;;;40.13;10.80;;;4.50;90.10;;;;;;5076958;28;20369;-39
2021/11/28 04:40:18;;;;;;;24.38;10.35;;;4.40;90.10;;;;;;5076828;28;20034;-39
2021/11/28 04:42:44;;;;;;;37.50;11.98;;;4.40;90.10;;;;;;5076840;28;20035;-39
2021/11/28 04:45:10;;;;;;;42.47;12.20;;;4.40;90.10;;;;;;5076610;28;20028;-38
2021/11/28 04:47:36;;;;;;;38.75;11.50;;;4.40;90.20;;;;;;5076816;28;20103;-39
2021/11/28 04:50:05;;;;;;;82.68;14.57;;;4.30;90.20;;;;;;5076536;28;20036;-33
2021/11/28 04:52:31;;;;;;;46.83;11.60;;;4.30;90.50;;;;;;5076727;28;20074;-39
2021/11/28 04:54:56;;;;;;;53.40;11.20;;;4.20;90.30;;;;;;5076488;28;20056;-34
2021/11/28 04:57:22;;;;;;;55.35;13.45;;;4.20;90.40;;;;;;5076612;28;20044;-35
2021/11/28 04:59:49;;;;;;;46.85;10.35;;;4.20;90.30;;;;;;5076946;28;20040;-39
2021/11/28 05:02:14;;;;;;;28.38;9.30;;;4.20;90.30;;;;;;5076579;28;20028;-39
2021/11/28 05:04:40;;;;;;;32.38;8.95;;;4.20;90.40;;;;;;5076800;28;20048;-39
2021/11/28 05:07:06;;;;;;;32.83;9.20;;;4.20;90.30;;;;;;5076572;28;20090;-39
2021/11/28 05:09:32;;;;;;;65.13;9.55;;;4.10;90.20;;;;;;5076790;28;20226;-34
2021/11/28 05:11:58;;;;;;;52.65;12.20;;;4.10;90.10;;;;;;5076451;28;20032;-35
2021/11/28 05:14:24;;;;;;;61.45;10.48;;;4.10;90.20;;;;;;5076761;28;20408;-38
2021/11/28 05:16:50;;;;;;;53.10;8.88;;;4.00;90.20;;;;;;5076342;28;20028;-34
2021/11/28 05:19:16;;;;;;;48.63;10.60;;;4.00;90.20;;;;;;5076566;28;20043;-39
2021/11/28 05:21:43;;;;;;;47.83;12.10;;;4.00;90.20;;;;;;5076272;28;20033;-35
2021/11/28 05:24:09;;;;;;;38.10;10.27;;;3.90;90.20;;;;;;5075086;28;20037;-34
2021/11/28 05:26:35;;;;;;;46.80;9.55;;;3.90;90.40;;;;;;5076525;28;20154;-39
2021/11/28 05:29:02;;;;;;;93.93;13.68;;;3.90;90.40;;;;;;5076320;28;20115;-34
2021/11/28 05:31:27;;;;;;;67.68;10.98;;;3.90;90.50;;;;;;5076140;28;20042;-39
2021/11/28 05:33:54;;;;;;;97.32;11.10;;;3.90;90.70;;;;;;5075147;28;20036;-39
2021/11/28 05:36:21;;;;;;;84.63;11.70;;;3.90;90.70;;;;;;5076082;28;20281;-38
2021/11/28 05:38:47;;;;;;;114.97;11.63;;;3.90;90.80;;;;;;5076203;28;20024;-34
2021/11/28 05:41:13;;;;;;;80.75;10.73;;;3.90;90.80;;;;;;5075990;28;20117;-35
2021/11/28 05:43:42;;;;;;;103.30;11.43;;;3.90;91.00;;;;;;5076214;28;20444;-39
2021/11/28 05:46:08;;;;;;;107.30;14.98;;;3.90;91.20;;;;;;5076182;28;20363;-34
2021/11/28 05:48:34;;;;;;;147.02;16.27;;;3.90;91.20;;;;;;5075980;28;20097;-34
2021/11/28 05:51:00;;;;;;;124.63;15.40;;;3.90;91.30;;;;;;5075898;28;20408;-39
2021/11/28 05:53:26;;;;;;;239.32;24.25;;;3.90;91.40;;;;;;5075605;28;20032;-38
2021/11/28 05:55:53;;;;;;;172.00;16.70;;;4.00;91.70;;;;;;5075840;28;20090;-39
2021/11/28 05:58:18;;;;;;;134.30;14.68;;;4.00;91.90;;;;;;5075711;28;20052;-34
2021/11/28 06:00:44;;;;;;;91.38;14.25;;;4.10;92.10;;;;;;5078039;28;20029;-34
2021/11/28 06:03:10;;;;;;;102.68;15.55;;;4.20;92.00;;;;;;5079933;28;20036;-36
2021/11/28 06:05:42;;;;;;;123.35;17.52;;;4.20;91.70;;;;;;5079709;28;20059;-34
2021/11/28 06:08:08;;;;;;;193.18;20.73;;;4.30;91.70;;;;;;5080064;28;20044;-34
2021/11/28 06:10:33;;;;;;;93.20;15.95;;;4.30;91.90;;;;;;5079584;28;20428;-39
2021/11/28 06:12:59;;;;;;;128.60;17.77;;;4.40;92.00;;;;;;5079546;28;20060;-34
2021/11/28 06:15:25;;;;;;;84.38;14.15;;;4.40;92.00;;;;;;5079623;28;20107;-40
2021/11/28 06:17:51;;;;;;;157.82;15.18;;;4.50;92.00;;;;;;5079580;28;20036;-34
2021/11/28 06:20:16;;;;;;;85.75;13.63;;;4.50;92.00;;;;;;5079471;28;20025;-39
2021/11/28 06:22:42;;;;;;;120.78;20.30;;;4.60;92.00;;;;;;5079409;28;20032;-38
2021/11/28 06:25:09;;;;;;;159.38;29.27;;;4.70;92.00;;;;;;5079475;28;20080;-36
2021/11/28 06:27:35;;;;;;;143.13;15.40;;;4.70;92.00;;;;;;5079667;28;20056;-34
2021/11/28 06:30:01;;;;;;;100.93;16.52;;;4.80;91.90;;;;;;5079779;28;20043;-39
2021/11/28 06:32:27;;;;;;;175.85;22.60;;;4.80;91.80;;;;;;5079811;28;20021;-39
2021/11/28 06:34:52;;;;;;;104.82;15.40;;;4.80;91.70;;;;;;5079769;28;20435;-36
2021/11/28 06:37:18;;;;;;;58.88;12.43;;;4.90;91.80;;;;;;5079322;28;20387;-36
2021/11/28 06:39:44;;;;;;;122.28;18.60;;;4.90;91.70;;;;;;5079303;28;20127;-34
2021/11/28 06:42:10;;;;;;;138.07;19.33;;;4.90;91.70;;;;;;5079198;28;20047;-35
2021/11/28 06:44:35;;;;;;;76.60;14.68;;;5.00;91.70;;;;;;5079311;28;20404;-34
2021/11/28 06:47:01;;;;;;;151.73;33.08;;;5.00;91.70;;;;;;5078921;28;20027;-35
2021/11/28 06:49:27;;;;;;;175.15;29.40;;;5.10;91.90;;;;;;5079403;28;20041;-38
2021/11/28 06:51:54;;;;;;;116.95;22.80;;;5.10;91.80;;;;;;5079208;28;20357;-34
2021/11/28 06:54:21;;;;;;;94.65;18.20;;;5.20;91.80;;;;;;5078724;28;20057;-39
2021/11/28 06:56:47;;;;;;;81.30;19.67;;;5.20;91.60;;;;;;5078991;28;20035;-39
2021/11/28 06:59:12;;;;;;;114.43;25.98;;;5.20;91.60;;;;;;5078641;28;20032;-38
2021/11/28 07:01:38;;;;;;;74.55;25.13;;;5.30;91.40;;;;;;5078795;28;20104;-37
2021/11/28 07:04:04;;;;;;;64.40;21.58;;;5.30;91.30;;;;;;5078729;28;20035;-38
2021/11/28 07:06:29;;;;;;;91.43;18.10;;;5.30;91.50;;;;;;5078402;28;20031;-39
2021/11/28 07:08:55;;;;;;;95.05;13.85;;;5.40;91.50;;;;;;5078821;28;20024;-35
2021/11/28 07:11:21;;;;;;;79.25;14.88;;;5.40;91.40;;;;;;5078404;28;20385;-39
2021/11/28 07:13:49;;;;;;;132.35;14.38;;;5.40;91.40;;;;;;5078373;28;20397;-40
2021/11/28 07:16:15;;;;;;;66.30;15.63;;;5.50;91.40;;;;;;5078474;28;20040;-34
2021/11/28 07:18:43;;;;;;;107.93;12.18;;;5.50;91.50;;;;;;5078598;28;20039;-38
2021/11/28 07:21:09;;;;;;;109.68;11.75;;;5.50;91.50;;;;;;5078571;28;20029;-38
2021/11/28 07:23:36;;;;;;;103.75;13.18;;;5.60;91.30;;;;;;5078282;28;20120;-38
2021/11/28 07:26:03;;;;;;;58.50;12.75;;;5.60;91.20;;;;;;5078114;28;20071;-39
2021/11/28 07:28:29;;;;;;;112.15;17.23;;;5.60;91.30;;;;;;5078207;28;20016;-34
2021/11/28 07:30:55;;;;;;;73.25;16.73;;;5.70;91.80;;;;;;5078071;28;20336;-34
2021/11/28 07:33:20;;;;;;;86.03;15.77;;;5.70;91.70;;;;;;5078315;28;20159;-38
2021/11/28 07:35:46;;;;;;;84.80;15.63;;;5.80;91.80;;;;;;5078570;28;20108;-38
2021/11/28 07:38:13;;;;;;;65.82;15.75;;;5.90;91.50;;;;;;5078122;28;20024;-35
2021/11/28 07:40:38;;;;;;;67.28;14.48;;;6.00;91.30;;;;;;5078371;28;20024;-39
2021/11/28 07:43:04;;;;;;;129.05;30.65;;;6.00;91.30;;;;;;5077999;28;20034;-39
2021/11/28 07:45:31;;;;;;;104.93;30.45;;;6.00;91.50;;;;;;5077604;28;20067;-34
2021/11/28 07:47:58;;;;;;;182.75;48.10;;;6.10;91.20;;;;;;5077878;28;20024;-39
2021/11/28 07:50:25;;;;;;;154.00;51.80;;;6.20;91.20;;;;;;5078079;28;20131;-34
2021/11/28 07:52:51;;;;;;;194.77;67.00;;;6.20;91.10;;;;;;5077737;28;20393;-39
2021/11/28 07:55:17;;;;;;;216.45;72.20;;;6.20;90.80;;;;;;5077509;28;20301;-34
2021/11/28 07:57:44;;;;;;;273.10;88.90;;;6.30;90.80;;;;;;5077915;28;20103;-34
2021/11/28 08:00:10;;;;;;;241.75;78.32;;;6.30;90.60;;;;;;5077921;28;20032;-39
2021/11/28 08:02:36;;;;;;;179.52;61.47;;;6.30;90.60;;;;;;5077462;28;20063;-35
2021/11/28 08:05:03;;;;;;;327.95;71.15;;;6.40;90.50;;;;;;5076607;28;20060;-34
2021/11/28 08:07:29;;;;;;;198.52;57.85;;;6.40;90.50;;;;;;5077678;28;20362;-34
2021/11/28 08:09:55;;;;;;;288.30;63.38;;;6.40;90.50;;;;;;5077762;28;20036;-34
2021/11/28 08:12:21;;;;;;;272.10;61.15;;;6.50;90.30;;;;;;5077368;28;20086;-39
2021/11/28 08:14:47;;;;;;;171.35;48.60;;;6.40;90.00;;;;;;5077664;28;20127;-39
2021/11/28 08:17:13;;;;;;;182.15;47.38;;;6.40;89.60;;;;;;5077276;28;20052;-39
2021/11/28 08:19:40;;;;;;;175.48;48.08;;;6.40;89.80;;;;;;5077621;28;20375;-35
2021/11/28 08:22:07;;;;;;;141.40;29.33;;;6.40;90.10;;;;;;5077144;28;20297;-39
2021/11/28 08:24:33;;;;;;;99.95;22.63;;;6.50;90.30;;;;;;5076467;28;20036;-34
2021/11/28 08:26:59;;;;;;;106.38;21.58;;;6.50;90.30;;;;;;5077263;28;20153;-39
2021/11/28 08:29:26;;;;;;;73.57;21.58;;;6.50;90.30;;;;;;5077456;28;20059;-34
2021/11/28 08:31:52;;;;;;;100.78;23.10;;;6.50;90.40;;;;;;5077068;28;20444;-39
2021/11/28 08:34:18;;;;;;;88.47;24.80;;;6.50;90.30;;;;;;5077169;28;20043;-39
2021/11/28 08:36:44;;;;;;;116.35;28.40;;;6.50;90.30;;;;;;5076952;28;20111;-39
2021/11/28 08:39:11;;;;;;;64.38;23.90;;;6.60;90.30;;;;;;5077187;28;20115;-39
2021/11/28 08:41:38;;;;;;;107.60;34.00;;;6.60;90.20;;;;;;5076577;28;20033;-39
2021/11/28 08:44:04;;;;;;;106.28;34.10;;;6.70;90.20;;;;;;5077018;28;20036;-35
2021/11/28 08:46:30;;;;;;;106.78;34.40;;;6.70;90.10;;;;;;5076852;28;20435;-34
2021/11/28 08:48:57;;;;;;;81.88;32.72;;;6.70;90.00;;;;;;5076813;28;20123;-38
2021/11/28 08:51:28;;;;;;;89.88;31.48;;;6.70;90.00;;;;;;5076692;28;20426;-34
2021/11/28 08:53:55;;;;;;;91.85;30.25;;;6.70;89.30;;;;;;5076487;28;20052;-39
2021/11/28 08:56:23;;;;;;;61.13;26.05;;;6.70;89.30;;;;;;5076306;28;20411;-39
2021/11/28 08:58:49;;;;;;;72.80;25.25;;;6.70;89.60;;;;;;5076588;28;20039;-34
2021/11/28 09:01:15;;;;;;;83.20;30.20;;;6.70;89.70;;;;;;5076327;28;20031;-39
2021/11/28 09:03:41;;;;;;;130.10;49.53;;;6.70;90.00;;;;;;5076876;28;20028;-38
2021/11/28 09:06:08;;;;;;;84.95;32.08;;;6.80;90.00;;;;;;5076526;28;20116;-39
2021/11/28 09:08:36;;;;;;;95.45;31.13;;;6.80;90.10;;;;;;5076287;28;21667;-39
2021/11/28 09:11:04;;;;;;;98.22;34.67;;;6.80;90.20;;;;;;5076009;28;20051;-34
2021/11/28 09:13:31;;;;;;;96.28;31.55;;;6.90;90.10;;;;;;5076279;28;20028;-35
2021/11/28 09:15:58;;;;;;;125.78;50.10;;;6.90;90.10;;;;;;5076512;28;20283;-38
2021/11/28 09:18:28;;;;;;;137.60;49.50;;;7.00;90.10;;;;;;5076113;28;20037;-39
2021/11/28 09:20:59;;;;;;;104.78;43.15;;;7.00;90.10;;;;;;5076245;28;20056;-39
2021/11/28 09:26:09;;;;;;;60.10;26.13;;;7.10;90.30;;;;;;5076547;28;20034;-35
2021/11/28 09:28:39;;;;;;;90.80;35.22;;;7.10;90.10;;;;;;5076024;28;20409;-39
2021/11/28 09:31:09;;;;;;;84.38;23.83;;;7.10;90.20;;;;;;5075795;28;20025;-39
2021/11/28 09:33:36;;;;;;;203.45;112.53;;;7.20;90.30;;;;;;5075870;28;20423;-35
2021/11/28 09:36:02;;;;;;;84.32;37.15;;;7.30;90.30;;;;;;5075464;28;20409;-38
2021/11/28 09:38:28;;;;;;;54.83;23.95;;;7.30;90.30;;;;;;5075863;28;20039;-39
2021/11/28 09:40:55;;;;;;;67.25;23.83;;;7.30;90.40;;;;;;5075659;28;20025;-39
2021/11/28 09:43:24;;;;;;;81.82;27.70;;;7.40;90.50;;;;;;5075710;28;20077;-39
2021/11/28 09:45:52;;;;;;;71.20;23.00;;;7.40;90.50;;;;;;5075569;28;20111;-40
2021/11/28 09:48:21;;;;;;;90.30;23.52;;;7.40;90.40;;;;;;5075865;28;20036;-39
2021/11/28 09:50:47;;;;;;;80.47;28.48;;;7.50;90.30;;;;;;5075716;28;20017;-34
2021/11/28 09:53:15;;;;;;;84.18;27.80;;;7.50;90.40;;;;;;5075413;28;20073;-34
2021/11/28 09:55:42;;;;;;;81.10;28.13;;;7.50;90.50;;;;;;5075426;28;20053;-39
2021/11/28 09:58:09;;;;;;;83.20;29.30;;;7.60;90.50;;;;;;5074156;28;20032;-34
2021/11/28 10:00:36;;;;;;;82.18;28.55;;;7.60;90.80;;;;;;5075735;28;20120;-34
2021/11/28 10:03:03;;;;;;;102.85;39.63;;;7.70;90.70;;;;;;5075849;28;20086;-39
2021/11/28 10:05:29;;;;;;;129.80;55.92;;;7.70;90.80;;;;;;5075401;28;20039;-36
2021/11/28 10:07:54;;;;;;;132.40;48.72;;;7.80;90.90;;;;;;5075246;28;20021;-34
2021/11/28 10:10:21;;;;;;;127.63;48.90;;;7.90;90.90;;;;;;5075270;28;20034;-38
2021/11/28 10:12:50;;;;;;;92.25;36.35;;;8.00;91.00;;;;;;5075752;28;20017;-34
2021/11/28 10:15:25;;;;;;;121.32;47.75;;;8.00;90.80;;;;;;5075510;28;20116;-39
2021/11/28 10:17:51;;;;;;;116.97;51.17;;;8.10;90.90;;;;;;5075792;28;20028;-39
2021/11/28 10:20:20;;;;;;;92.25;34.40;;;8.20;90.90;;;;;;5075736;28;20040;-39
2021/11/28 10:22:46;;;;;;;97.55;38.70;;;8.20;90.80;;;;;;5075566;28;20036;-34
2021/11/28 10:25:21;;;;;;;84.10;34.53;;;8.30;90.80;;;;;;5075320;28;20466;-39
2021/11/28 10:27:50;;;;;;;96.93;37.72;;;8.30;90.80;;;;;;5075508;28;20017;-35
2021/11/28 10:30:30;;;;;;;88.10;39.55;;;8.40;90.80;;;;;;5075156;28;20032;-34
2021/11/28 10:33:09;;;;;;;103.20;45.70;;;8.50;90.80;;;;;;5075203;28;20035;-39
2021/11/28 10:35:35;;;;;;;90.43;33.67;;;8.60;90.80;;;;;;5075473;28;20070;-34
2021/11/28 10:38:10;;;;;;;109.95;51.78;;;8.60;90.70;;;;;;5075518;28;20032;-35
2021/11/28 10:40:36;;;;;;;72.35;34.30;;;8.70;90.50;;;;;;5075469;28;20113;-39
2021/11/28 10:43:08;;;;;;;92.65;40.35;;;8.70;90.50;;;;;;5075490;28;20029;-40
2021/11/28 10:45:47;;;;;;;74.85;34.35;;;8.70;90.20;;;;;;5075320;28;20072;-35
2021/11/28 10:48:13;;;;;;;74.40;34.95;;;8.80;90.10;;;;;;5077776;28;20082;-40
2021/11/28 10:50:40;;;;;;;60.75;30.52;;;8.80;89.90;;;;;;5079031;28;20028;-39
2021/11/28 10:53:20;;;;;;;61.08;29.27;;;8.80;89.80;;;;;;5078982;28;20075;-35
2021/11/28 10:55:52;;;;;;;49.97;26.52;;;8.80;89.70;;;;;;5079098;28;20071;-39
2021/11/28 10:58:26;;;;;;;57.40;30.08;;;8.80;89.90;;;;;;5078963;28;20036;-34
2021/11/28 11:00:52;;;;;;;44.65;20.90;;;8.80;90.00;;;;;;5078561;28;20098;-34
2021/11/28 11:03:29;;;;;;;55.83;20.33;;;8.80;89.90;;;;;;5078596;28;20036;-34
2021/11/28 11:06:12;;;;;;;35.72;18.02;;;8.90;89.60;;;;;;5078395;28;20032;-35
2021/11/28 11:08:38;;;;;;;53.45;21.65;;;8.90;89.50;;;;;;5078666;28;20062;-34
2021/11/28 11:11:08;;;;;;;42.58;20.95;;;8.90;89.50;;;;;;5078594;28;20037;-39
2021/11/28 11:13:50;;;;;;;93.03;19.63;;;8.90;89.40;;;;;;5078550;28;20428;-39
2021/11/28 11:16:29;;;;;;;53.85;17.52;;;8.90;89.20;;;;;;5078241;28;20067;-39
2021/11/28 11:18:54;;;;;;;54.67;16.98;;;8.90;89.00;;;;;;5078455;28;20025;-34
2021/11/28 11:21:20;;;;;;;54.13;19.92;;;8.80;89.00;;;;;;5078442;28;20408;-39
2021/11/28 11:23:47;;;;;;;44.72;18.35;;;8.80;89.10;;;;;;5078279;28;20031;-34
2021/11/28 11:26:23;;;;;;;57.42;19.92;;;8.80;89.20;;;;;;5077884;28;20082;-39
2021/11/28 11:29:01;;;;;;;32.50;18.02;;;8.80;89.30;;;;;;5078174;28;20090;-40
2021/11/28 11:31:27;;;;;;;47.65;18.73;;;8.80;89.40;;;;;;5078074;28;20367;-34
2021/11/28 11:33:52;;;;;;;36.80;17.20;;;8.80;89.50;;;;;;5078126;28;20024;-34
2021/11/28 11:36:18;;;;;;;39.45;18.15;;;8.80;89.30;;;;;;5078264;28;20032;-39
2021/11/28 11:38:44;;;;;;;38.50;18.48;;;8.80;89.20;;;;;;5078364;28;20024;-34
2021/11/28 11:41:10;;;;;;;52.08;20.15;;;8.80;89.10;;;;;;5077833;28;20064;-39
2021/11/28 11:43:38;;;;;;;54.08;18.55;;;8.80;89.30;;;;;;5077969;28;20098;-34
2021/11/28 11:46:08;;;;;;;58.20;23.85;;;8.80;89.40;;;;;;5077939;28;20048;-34
2021/11/28 11:48:35;;;;;;;49.92;20.30;;;8.80;89.50;;;;;;5077757;28;20029;-39
2021/11/28 11:51:10;;;;;;;57.30;20.55;;;8.80;89.60;;;;;;5077589;28;20033;-34
2021/11/28 11:53:36;;;;;;;73.13;27.48;;;8.80;89.50;;;;;;5077511;28;20049;-40
2021/11/28 11:56:03;;;;;;;72.85;23.92;;;8.80;89.50;;;;;;5077589;28;20504;-39
2021/11/28 11:58:46;;;;;;;61.28;19.80;;;8.80;89.50;;;;;;5077560;28;20037;-39
2021/11/28 12:01:18;;;;;;;49.17;19.85;;;8.80;89.20;;;;;;5077492;28;20036;-39
2021/11/28 12:03:51;;;;;;;72.70;21.67;;;8.80;89.30;;;;;;5077334;28;20040;-40
2021/11/28 12:06:17;;;;;;;81.72;24.17;;;8.80;89.20;;;;;;5077498;28;20032;-34
2021/11/28 12:08:52;;;;;;;71.68;20.60;;;8.80;89.20;;;;;;5077630;28;20032;-34
2021/11/28 12:11:22;;;;;;;76.15;18.55;;;8.80;89.70;;;;;;5077137;28;20048;-35
2021/11/28 12:13:53;;;;;;;36.13;17.20;;;8.80;89.00;;;;;;5077013;28;20036;-39
2021/11/28 12:16:20;;;;;;;65.25;19.35;;;8.70;88.90;;;;;;5076115;28;20029;-39
2021/11/28 12:18:52;;;;;;;43.97;18.23;;;8.70;89.00;;;;;;5077327;28;20158;-39
2021/11/28 12:21:20;;;;;;;35.28;16.15;;;8.70;89.10;;;;;;5077086;28;20033;-39
2021/11/28 12:24:10;;;;;;;40.63;18.10;;;8.70;89.20;;;;;;5077228;28;20027;-39
2021/11/28 12:26:38;;;;;;;43.90;16.15;;;8.70;89.10;;;;;;5077175;28;20165;-39
2021/11/28 12:29:16;;;;;;;27.60;16.63;;;8.60;89.00;;;;;;5077067;28;20059;-34
2021/11/28 12:31:48;;;;;;;29.08;15.00;;;8.60;89.10;;;;;;5076990;28;20074;-34
2021/11/28 12:34:22;;;;;;;27.38;16.05;;;8.60;89.30;;;;;;5076922;28;20028;-39
2021/11/28 12:36:56;;;;;;;28.05;14.95;;;8.60;89.40;;;;;;5077406;28;20045;-35
2021/11/28 12:39:23;;;;;;;25.77;15.45;;;8.60;89.60;;;;;;5076716;28;20305;-34
2021/11/28 12:41:52;;;;;;;27.45;16.30;;;8.60;90.00;;;;;;5076752;28;20041;-41
2021/11/28 12:44:20;;;;;;;29.75;18.50;;;8.60;90.10;;;;;;5077016;28;20340;-39
2021/11/28 12:46:46;;;;;;;27.83;16.88;;;8.60;90.10;;;;;;5076743;28;20111;-34